createdAt,value
2022-08-24T00:00:58.033Z,7.87
2022-08-24T00:04:59.907Z,7.40
2022-08-24T00:09:01.827Z,7.80
2022-08-24T00:13:03.745Z,6.53
2022-08-24T00:17:05.831Z,7.43
2022-08-24T00:21:08.243Z,7.50
2022-08-24T00:25:11.602Z,7.23
2022-08-24T00:29:14.841Z,7.17
2022-08-24T00:33:16.765Z,6.93
2022-08-24T00:37:18.581Z,7.40
2022-08-24T00:41:20.410Z,7.13
2022-08-24T00:45:22.540Z,7.53
2022-08-24T00:49:35.810Z,7.50
2022-08-24T00:53:44.102Z,6.80
2022-08-24T00:57:49.309Z,7.50
2022-08-24T01:01:51.960Z,7.17
2022-08-24T01:05:54.029Z,8.20
2022-08-24T01:09:59.185Z,8.70
2022-08-24T01:14:02.155Z,8.53
2022-08-24T01:18:23.413Z,8.00
2022-08-24T01:22:45.688Z,9.80
2022-08-24T01:26:49.722Z,9.77
2022-08-24T01:30:51.482Z,9.50
2022-08-24T01:34:54.056Z,8.83
2022-08-24T01:38:57.875Z,8.57
2022-08-24T01:42:59.700Z,8.20
2022-08-24T01:47:01.942Z,8.37
2022-08-24T01:51:08.639Z,8.07
2022-08-24T01:55:12.409Z,9.70
2022-08-24T01:59:16.600Z,8.23
2022-08-24T02:03:27.656Z,9.77
2022-08-24T02:07:39.534Z,9.10
2022-08-24T02:11:41.335Z,8.93
2022-08-24T02:15:49.524Z,9.00
2022-08-24T02:19:57.476Z,8.20
2022-08-24T02:23:59.365Z,7.70
2022-08-24T02:28:01.842Z,7.57
2022-08-24T02:32:04.242Z,7.63
2022-08-24T02:36:25.454Z,8.17
2022-08-24T02:40:27.764Z,8.07
2022-08-24T02:44:29.609Z,8.80
2022-08-24T02:48:31.546Z,8.23
2022-08-24T02:52:33.285Z,8.70
2022-08-24T02:56:35.080Z,8.77
2022-08-24T03:00:38.592Z,8.37
2022-08-24T03:04:40.548Z,8.00
2022-08-24T03:08:46.464Z,8.87
2022-08-24T03:12:59.516Z,8.43
2022-08-24T03:17:01.418Z,9.10
2022-08-24T03:21:03.625Z,8.10
2022-08-24T03:25:05.728Z,10.97
2022-08-24T03:29:07.885Z,10.13
2022-08-24T03:33:09.999Z,10.83
2022-08-24T03:37:13.960Z,10.43
2022-08-24T03:41:15.714Z,10.53
2022-08-24T03:45:17.649Z,10.57
2022-08-24T03:49:20.025Z,10.10
2022-08-24T03:53:22.097Z,10.20
2022-08-24T03:57:26.493Z,10.03
2022-08-24T04:01:29.790Z,9.80
2022-08-24T04:05:34.941Z,9.80
2022-08-24T04:09:36.967Z,10.93
2022-08-24T04:13:38.827Z,10.07
2022-08-24T04:17:40.619Z,9.40
2022-08-24T04:21:45.472Z,10.27
2022-08-24T04:25:48.145Z,10.37
2022-08-24T04:29:50.007Z,10.67
2022-08-24T04:33:54.886Z,10.30
2022-08-24T04:37:59.353Z,9.23
2022-08-24T04:42:03.191Z,10.80
2022-08-24T04:46:06.857Z,9.47
2022-08-24T04:50:08.905Z,8.90
2022-08-24T04:54:11.219Z,9.87
2022-08-24T04:58:17.133Z,9.90
2022-08-24T05:02:20.971Z,10.27
2022-08-24T05:06:25.534Z,9.83
2022-08-24T05:10:33.479Z,9.30
2022-08-24T05:14:35.750Z,10.20
2022-08-24T05:18:37.984Z,9.13
2022-08-24T05:22:39.881Z,9.77
2022-08-24T05:26:42.327Z,9.27
2022-08-24T05:30:44.109Z,9.20
2022-08-24T05:34:45.905Z,8.87
2022-08-24T05:38:48.171Z,8.80
2022-08-24T05:42:50.414Z,9.60
2022-08-24T05:46:53.370Z,9.60
2022-08-24T05:50:56.488Z,9.47
2022-08-24T05:54:59.971Z,9.60
2022-08-24T05:59:02.227Z,9.53
2022-08-24T06:03:04.290Z,9.10
2022-08-24T06:07:09.213Z,10.27
2022-08-24T06:11:11.047Z,10.63
2022-08-24T06:15:13.342Z,9.57
2022-08-24T06:19:17.731Z,10.23
2022-08-24T06:23:19.480Z,9.43
2022-08-24T06:27:21.738Z,9.00
2022-08-24T06:31:27.067Z,8.80
2022-08-24T06:35:29.747Z,9.57
2022-08-24T06:39:31.896Z,9.70
2022-08-24T06:43:34.357Z,8.85
2022-08-24T06:47:38.919Z,8.57
2022-08-24T06:51:40.904Z,8.90
2022-08-24T06:55:57.613Z,9.68
2022-08-24T06:59:59.475Z,9.73
2022-08-24T07:04:01.329Z,9.07
2022-08-24T07:08:04.082Z,9.40
2022-08-24T07:12:07.461Z,10.07
2022-08-24T07:16:10.733Z,10.60
2022-08-24T07:20:13.070Z,9.77
2022-08-24T07:24:17.415Z,11.00
2022-08-24T07:28:27.710Z,11.23
2022-08-24T07:32:34.086Z,12.67
2022-08-24T07:36:38.932Z,11.50
2022-08-24T07:41:09.401Z,10.87
2022-08-24T07:45:10.145Z,11.37
2022-08-24T07:49:29.332Z,11.27
2022-08-24T07:53:52.573Z,11.37
2022-08-24T07:57:55.195Z,10.50
2022-08-24T08:01:58.827Z,11.77
2022-08-24T08:06:03.972Z,10.57
2022-08-24T08:10:06.653Z,9.70
2022-08-24T08:14:11.369Z,8.57
2022-08-24T08:18:13.462Z,9.43
2022-08-24T08:22:33.762Z,9.43
2022-08-24T08:26:35.656Z,11.88
2022-08-24T08:30:37.714Z,11.35
2022-08-24T08:34:39.496Z,9.48
2022-08-24T08:38:43.094Z,11.90
2022-08-24T08:42:59.751Z,9.82
2022-08-24T08:47:14.129Z,10.45
2022-08-24T08:51:59.426Z,10.00
2022-08-24T08:56:14.066Z,8.65
2022-08-24T09:00:32.080Z,8.95
2022-08-24T09:05:21.383Z,8.50
2022-08-24T09:09:33.065Z,8.27
2022-08-24T09:13:44.544Z,8.43
2022-08-24T09:18:21.047Z,8.65
2022-08-24T09:22:25.830Z,7.65
2022-08-24T09:26:59.578Z,7.45
2022-08-24T09:31:43.820Z,6.75
2022-08-24T09:36:11.024Z,7.63
2022-08-24T09:40:50.202Z,8.07
2022-08-24T09:45:42.723Z,7.97
2022-08-24T09:50:24.874Z,7.20
2022-08-24T09:55:15.469Z,6.80
2022-08-24T09:59:44.822Z,8.10
2022-08-24T10:03:58.372Z,6.95
2022-08-24T10:08:48.363Z,6.40
2022-08-24T10:13:23.806Z,7.70
2022-08-24T10:18:20.242Z,7.72
2022-08-24T10:23:23.096Z,7.43
2022-08-24T10:28:39.577Z,8.45
2022-08-24T10:33:24.102Z,8.00
2022-08-24T10:37:43.913Z,7.68
2022-08-24T10:41:57.781Z,8.07
2022-08-24T10:46:36.309Z,8.38
2022-08-24T10:51:03.105Z,8.52
2022-08-24T10:55:24.862Z,8.30
2022-08-24T10:59:35.380Z,8.38
2022-08-24T11:04:02.146Z,9.38
2022-08-24T11:08:06.237Z,9.70
2022-08-24T11:12:23.779Z,8.63
2022-08-24T11:16:32.579Z,8.77
2022-08-24T11:20:40.621Z,9.30
2022-08-24T11:24:48.466Z,9.00
2022-08-24T11:28:58.691Z,8.95
2022-08-24T11:33:06.371Z,8.32
2022-08-24T11:37:14.282Z,7.43
2022-08-24T11:41:32.538Z,8.18
2022-08-24T11:45:45.295Z,8.55
2022-08-24T11:50:15.816Z,8.75
2022-08-24T11:54:38.882Z,8.55
2022-08-24T11:58:54.258Z,8.68
2022-08-24T12:03:17.833Z,8.52
2022-08-24T12:07:26.323Z,9.35
2022-08-24T12:11:46.994Z,9.25
2022-08-24T12:16:05.863Z,8.52
2022-08-24T12:20:34.169Z,8.40
2022-08-24T12:24:48.824Z,7.78
2022-08-24T12:28:55.316Z,8.10
2022-08-24T12:33:03.663Z,9.02
2022-08-24T12:37:16.354Z,9.15
2022-08-24T12:41:27.890Z,9.15
2022-08-24T12:45:30.151Z,9.50
2022-08-24T12:49:43.901Z,9.13
2022-08-24T12:54:08.194Z,8.98
2022-08-24T12:58:48.213Z,7.03
2022-08-24T13:03:09.414Z,6.88
2022-08-24T13:07:21.104Z,6.15
2022-08-24T13:11:33.375Z,7.25
2022-08-24T13:15:35.179Z,7.72
2022-08-24T13:19:40.965Z,8.27
2022-08-24T13:23:42.756Z,8.48
2022-08-24T13:27:47.020Z,8.90
2022-08-24T13:31:51.163Z,8.65
2022-08-24T13:35:58.749Z,8.10
2022-08-24T13:40:10.332Z,8.32
2022-08-24T13:44:38.921Z,8.75
2022-08-24T13:48:58.637Z,8.43
2022-08-24T13:53:40.577Z,9.02
2022-08-24T13:57:52.763Z,8.95
2022-08-24T14:02:25.802Z,8.30
2022-08-24T14:06:48.801Z,8.68
2022-08-24T14:11:06.836Z,8.65
2022-08-24T14:15:42.055Z,7.47
2022-08-24T14:20:09.033Z,7.65
2022-08-24T14:24:32.380Z,8.70
2022-08-24T14:28:42.303Z,8.57
2022-08-24T14:33:12.132Z,8.27
2022-08-24T14:37:13.818Z,8.15
2022-08-24T14:41:46.310Z,7.70
2022-08-24T14:46:00.284Z,7.38
2022-08-24T14:50:12.620Z,8.52
2022-08-24T14:54:56.755Z,8.32
2022-08-24T14:59:40.417Z,9.55
2022-08-24T15:04:01.352Z,8.85
2022-08-24T15:08:11.586Z,9.85
2022-08-24T15:12:36.370Z,9.95
2022-08-24T15:16:54.305Z,11.10
2022-08-24T15:21:10.514Z,11.32
2022-08-24T15:25:32.186Z,12.07
2022-08-24T15:29:35.089Z,12.40
2022-08-24T15:34:01.983Z,12.55
2022-08-24T15:38:38.000Z,12.65
2022-08-24T15:42:40.483Z,12.55
2022-08-24T15:46:48.251Z,12.23
2022-08-24T15:50:50.108Z,13.23
2022-08-24T15:55:03.011Z,13.30
2022-08-24T15:59:13.019Z,13.50
2022-08-24T16:03:54.751Z,13.93
2022-08-24T16:08:02.551Z,12.98
2022-08-24T16:12:22.905Z,13.05
2022-08-24T16:16:41.475Z,13.30
2022-08-24T16:20:43.793Z,12.38
2022-08-24T16:24:45.534Z,13.10
2022-08-24T16:28:47.996Z,13.60
2022-08-24T16:32:56.045Z,13.55
2022-08-24T16:36:58.262Z,12.32
2022-08-24T16:41:09.704Z,10.93
2022-08-24T16:45:14.908Z,10.70
2022-08-24T16:49:16.850Z,11.18
2022-08-24T16:53:18.894Z,11.13
2022-08-24T16:57:23.430Z,12.10
2022-08-24T17:01:25.286Z,11.48
2022-08-24T17:05:27.410Z,11.25
2022-08-24T17:09:29.214Z,11.43
2022-08-24T17:13:48.984Z,10.90
2022-08-24T17:18:02.180Z,12.07
2022-08-24T17:22:04.870Z,11.47
2022-08-24T17:26:20.375Z,11.30
2022-08-24T17:30:23.878Z,11.67
2022-08-24T17:34:30.461Z,12.70
2022-08-24T17:38:41.937Z,11.80
2022-08-24T17:42:51.846Z,10.87
2022-08-24T17:46:59.347Z,10.70
2022-08-24T17:51:02.913Z,10.07
2022-08-24T17:55:09.503Z,9.70
2022-08-24T17:59:25.354Z,11.43
2022-08-24T18:03:28.036Z,10.77
2022-08-24T18:07:51.776Z,11.17
2022-08-24T18:11:53.102Z,9.83
2022-08-24T18:15:58.063Z,10.63
2022-08-24T18:19:59.996Z,10.73
2022-08-24T18:24:06.128Z,11.03
2022-08-24T18:28:11.429Z,11.00
2022-08-24T18:32:13.572Z,11.63
2022-08-24T18:36:17.530Z,11.43
2022-08-24T18:40:21.162Z,12.30
2022-08-24T18:44:28.244Z,11.53
2022-08-24T18:48:35.256Z,11.23
2022-08-24T18:52:37.612Z,11.57
2022-08-24T18:56:42.088Z,11.03
2022-08-24T19:00:44.223Z,10.53
2022-08-24T19:04:47.227Z,11.40
2022-08-24T19:08:51.523Z,11.17
2022-08-24T19:12:57.107Z,10.90
2022-08-24T19:17:02.024Z,10.87
2022-08-24T19:21:03.876Z,11.73
2022-08-24T19:25:06.759Z,11.60
2022-08-24T19:29:09.091Z,12.20
2022-08-24T19:33:14.211Z,13.17
2022-08-24T19:37:16.756Z,12.73
2022-08-24T19:41:19.208Z,12.73
2022-08-24T19:45:43.591Z,13.27
2022-08-24T19:49:45.756Z,12.93
2022-08-24T19:53:47.854Z,12.80
2022-08-24T19:57:54.723Z,13.07
2022-08-24T20:01:56.886Z,14.50
2022-08-24T20:05:58.688Z,14.50
2022-08-24T20:10:00.586Z,16.17
2022-08-24T20:14:14.684Z,14.10
2022-08-24T20:18:16.735Z,14.77
2022-08-24T20:22:18.746Z,14.13
2022-08-24T20:26:21.847Z,15.13
2022-08-24T20:30:23.849Z,15.83
2022-08-24T20:34:25.653Z,15.60
2022-08-24T20:38:29.415Z,16.37
2022-08-24T20:42:33.864Z,15.60
2022-08-24T20:46:36.351Z,20.17
2022-08-24T20:50:38.522Z,17.87
2022-08-24T20:54:40.857Z,16.87
2022-08-24T20:58:42.761Z,15.80
2022-08-24T21:02:44.557Z,16.67
2022-08-24T21:06:46.489Z,20.87
2022-08-24T21:10:53.274Z,16.83
2022-08-24T21:14:55.191Z,17.07
2022-08-24T21:18:57.134Z,17.10
2022-08-24T21:22:59.011Z,17.47
2022-08-24T21:27:01.720Z,17.73
2022-08-24T21:31:06.302Z,16.57
2022-08-24T21:35:08.357Z,16.13
2022-08-24T21:39:11.932Z,15.93
2022-08-24T21:43:17.748Z,15.63
2022-08-24T21:47:19.815Z,16.47
2022-08-24T21:51:22.022Z,16.30
2022-08-24T21:55:24.569Z,16.07
2022-08-24T21:59:27.183Z,16.90
2022-08-24T22:03:31.528Z,16.60
2022-08-24T22:07:39.347Z,15.87
2022-08-24T22:11:41.645Z,16.50
2022-08-24T22:15:44.340Z,17.87
2022-08-24T22:19:47.322Z,16.10
2022-08-24T22:23:49.484Z,17.13
2022-08-24T22:27:51.515Z,16.33
2022-08-24T22:31:53.538Z,16.30
2022-08-24T22:35:55.330Z,16.07
2022-08-24T22:39:57.669Z,15.33
2022-08-24T22:44:17.820Z,15.47
2022-08-24T22:48:19.606Z,16.40
2022-08-24T22:52:21.490Z,16.90
2022-08-24T22:56:32.706Z,15.97
2022-08-24T23:00:39.489Z,16.90
2022-08-24T23:04:47.678Z,16.57
2022-08-24T23:08:49.499Z,16.13
2022-08-24T23:12:51.340Z,17.40
2022-08-24T23:16:53.176Z,16.67
2022-08-24T23:20:55.617Z,16.73
2022-08-24T23:24:58.479Z,16.37
2022-08-24T23:29:00.688Z,17.33
2022-08-24T23:33:02.634Z,17.47
2022-08-24T23:37:05.111Z,17.60
2022-08-24T23:41:08.603Z,19.10
2022-08-24T23:45:12.218Z,16.77
2022-08-24T23:49:15.368Z,19.80
2022-08-24T23:53:17.206Z,18.30
2022-08-24T23:57:19.025Z,20.00
